Time;durP1;ratioP1;P1;durP2;ratioP2;P2;SDS_P1;SDS_P2;PMS_P1;PMS_P2;Temp;Humidity;BMP_temperature;BMP_pressure;BME280_temperature;BME280_humidity;BME280_pressure;Samples;Min_cycle;Max_cycle;Signal;HPM_P1;HPM_P2
2022/05/31 00:02:07;;;;;;;5.60;5.03;;;12.10;99.90;;;;;;4917962;29;20243;-76
2022/05/31 00:04:34;;;;;;;7.18;5.70;;;12.20;99.90;;;;;;4928476;29;20691;-77
2022/05/31 00:07:02;;;;;;;10.77;5.75;;;12.10;99.90;;;;;;4946702;28;20236;-77
2022/05/31 00:09:29;;;;;;;5.60;5.10;;;12.10;99.90;;;;;;4938380;29;20194;-77
2022/05/31 00:11:57;;;;;;;6.20;5.60;;;12.10;99.90;;;;;;4917315;29;20199;-77
2022/05/31 00:15:04;;;;;;;6.22;5.43;;;12.00;99.90;;;;;;4918889;29;20676;-76
2022/05/31 00:17:32;;;;;;;6.90;5.70;;;12.10;99.90;;;;;;4939865;28;20232;-77
2022/05/31 00:20:00;;;;;;;6.07;5.32;;;12.30;99.90;;;;;;4916088;29;20214;-77
2022/05/31 00:22:28;;;;;;;5.57;4.93;;;12.40;99.90;;;;;;4932883;29;20212;-78
2022/05/31 00:24:55;;;;;;;6.55;5.28;;;12.50;99.90;;;;;;4918399;29;20292;-77
2022/05/31 00:27:25;;;;;;;6.35;5.63;;;12.50;99.90;;;;;;4938298;28;20237;-76
2022/05/31 00:29:55;;;;;;;5.63;5.07;;;12.50;99.90;;;;;;4921072;29;20195;-76
2022/05/31 00:32:25;;;;;;;6.90;5.72;;;12.30;99.90;;;;;;4924122;29;20212;-76
2022/05/31 00:34:57;;;;;;;8.77;5.85;;;12.00;99.90;;;;;;4940178;29;20199;-76
2022/05/31 00:37:24;;;;;;;7.90;5.35;;;11.90;99.90;;;;;;4926218;29;20226;-76
2022/05/31 00:39:52;;;;;;;8.38;5.90;;;11.80;99.90;;;;;;4930158;29;20582;-76
2022/05/31 00:42:21;;;;;;;9.57;5.70;;;11.80;99.90;;;;;;4917712;29;20209;-76
2022/05/31 00:44:49;;;;;;;5.80;5.18;;;11.80;99.90;;;;;;4926571;29;20202;-77
2022/05/31 00:47:23;;;;;;;6.63;5.60;;;11.60;99.90;;;;;;4925325;29;20703;-76
2022/05/31 00:49:54;;;;;;;6.22;5.63;;;11.60;99.90;;;;;;4931148;29;20653;-77
2022/05/31 00:52:25;;;;;;;6.53;5.55;;;11.60;99.90;;;;;;4926763;29;20210;-76
2022/05/31 00:55:18;;;;;;;8.00;6.40;;;11.70;99.90;;;;;;4919584;29;20207;-76
2022/05/31 00:57:50;;;;;;;6.43;5.63;;;11.60;99.90;;;;;;4930141;29;20221;-77
2022/05/31 01:00:19;;;;;;;6.90;6.25;;;11.70;99.90;;;;;;4941475;29;20294;-77
2022/05/31 01:02:51;;;;;;;7.28;5.28;;;11.70;99.90;;;;;;4924850;29;20222;-77
2022/05/31 01:05:21;;;;;;;6.10;5.60;;;11.80;99.90;;;;;;4933397;29;20213;-78
2022/05/31 01:07:48;;;;;;;8.90;5.88;;;11.60;99.90;;;;;;4926979;29;20230;-76
2022/05/31 01:10:17;;;;;;;6.93;6.25;;;11.60;99.90;;;;;;4925038;29;20213;-76
2022/05/31 01:13:16;;;;;;;6.45;5.65;;;11.60;99.90;;;;;;4936978;28;20209;-77
2022/05/31 01:16:04;;;;;;;6.50;5.90;;;11.50;99.90;;;;;;4938052;28;20202;-75
2022/05/31 01:18:51;;;;;;;6.97;6.05;;;11.40;99.90;;;;;;4933911;29;20229;-75
2022/05/31 01:21:38;;;;;;;7.57;5.82;;;11.20;99.90;;;;;;4943606;28;20201;-75
2022/05/31 01:24:21;;;;;;;7.10;6.40;;;11.10;99.90;;;;;;4935347;29;20206;-75
2022/05/31 01:26:55;;;;;;;6.68;6.03;;;11.10;99.90;;;;;;4919703;29;20210;-75
2022/05/31 01:29:26;;;;;;;6.75;6.07;;;11.20;99.90;;;;;;4927202;29;20190;-75
2022/05/31 01:31:59;;;;;;;7.10;6.40;;;11.20;99.90;;;;;;4933934;29;20564;-76
2022/05/31 01:34:32;;;;;;;7.22;5.88;;;11.30;99.90;;;;;;4939010;28;20205;-75
2022/05/31 01:37:01;;;;;;;6.90;6.20;;;11.30;99.90;;;;;;4940395;29;20225;-75
2022/05/31 01:39:34;;;;;;;6.75;5.82;;;11.20;99.90;;;;;;4922677;29;20580;-78
2022/05/31 01:42:34;;;;;;;7.20;5.93;;;11.20;99.90;;;;;;4928587;29;20209;-75
2022/05/31 01:45:06;;;;;;;8.05;6.38;;;11.00;99.90;;;;;;4925503;29;20206;-75
2022/05/31 01:47:34;;;;;;;8.27;6.00;;;11.00;99.90;;;;;;4925916;23;20227;-75
2022/05/31 01:50:03;;;;;;;7.03;5.90;;;11.00;99.90;;;;;;4935591;29;20195;-76
2022/05/31 01:52:33;;;;;;;7.17;6.47;;;10.90;99.90;;;;;;4929948;29;20269;-78
2022/05/31 01:55:01;;;;;;;7.20;6.50;;;10.90;99.90;;;;;;4926653;29;20198;-76
2022/05/31 01:57:31;;;;;;;6.53;6.03;;;11.00;99.90;;;;;;4929050;29;20225;-77
2022/05/31 02:00:09;;;;;;;7.20;6.50;;;10.90;99.90;;;;;;4935810;29;20214;-76
2022/05/31 02:02:46;;;;;;;6.47;5.60;;;10.90;99.90;;;;;;4940202;28;20194;-76
2022/05/31 02:05:14;;;;;;;6.93;6.17;;;10.90;99.90;;;;;;4917096;29;20202;-76
2022/05/31 02:07:53;;;;;;;6.82;5.78;;;10.90;99.90;;;;;;4939590;28;20226;-77
2022/05/31 02:10:21;;;;;;;6.60;5.83;;;11.00;99.90;;;;;;4933722;29;20199;-76
2022/05/31 02:12:50;;;;;;;7.95;5.82;;;11.10;99.90;;;;;;4911442;29;20203;-76
2022/05/31 02:15:37;;;;;;;8.55;5.80;;;11.30;99.90;;;;;;4917453;29;20201;-76
2022/05/31 02:21:56;;;;;;;6.03;5.43;;;11.70;99.90;;;;;;4927382;29;20209;-76
2022/05/31 02:24:26;;;;;;;5.88;5.25;;;11.60;99.90;;;;;;4938957;29;20222;-76
2022/05/31 02:26:55;;;;;;;6.72;6.00;;;11.70;99.90;;;;;;4931581;28;20583;-76
2022/05/31 02:29:26;;;;;;;6.25;5.70;;;11.60;99.90;;;;;;4917697;29;20672;-76
2022/05/31 02:31:54;;;;;;;6.68;5.80;;;11.50;99.90;;;;;;4919362;29;20221;-76
2022/05/31 02:34:24;;;;;;;7.00;5.72;;;11.50;99.90;;;;;;4941690;29;20575;-76
2022/05/31 02:37:18;;;;;;;7.10;5.95;;;11.00;99.90;;;;;;4936129;29;20203;-76
2022/05/31 02:39:47;;;;;;;6.95;6.35;;;10.90;99.90;;;;;;4932654;29;20209;-76
2022/05/31 02:42:17;;;;;;;6.00;5.40;;;10.80;99.90;;;;;;4931178;29;20591;-76
2022/05/31 02:44:44;;;;;;;6.17;5.57;;;10.80;99.90;;;;;;4934579;29;20559;-76
2022/05/31 02:47:12;;;;;;;6.50;5.90;;;10.90;99.90;;;;;;4926587;29;20230;-78
2022/05/31 02:49:41;;;;;;;6.43;5.80;;;10.70;99.90;;;;;;4938969;28;20194;-75
2022/05/31 02:52:26;;;;;;;6.43;5.90;;;10.70;99.90;;;;;;4931248;29;20207;-76
2022/05/31 02:54:55;;;;;;;25.83;15.70;;;10.80;99.90;;;;;;4930536;29;20228;-77
2022/05/31 02:57:22;;;;;;;30.23;17.80;;;11.00;99.90;;;;;;4936265;29;20210;-76
2022/05/31 02:59:58;;;;;;;20.07;11.63;;;11.20;99.90;;;;;;4944819;29;20194;-76
2022/05/31 03:02:44;;;;;;;14.40;8.27;;;11.30;99.90;;;;;;4956352;28;20201;-76
2022/05/31 03:05:15;;;;;;;8.93;7.00;;;11.50;99.90;;;;;;4943255;29;20229;-76
2022/05/31 03:08:28;;;;;;;7.63;6.78;;;11.30;99.90;;;;;;4932215;29;20244;-77
2022/05/31 03:11:34;;;;;;;7.50;5.70;;;11.20;99.90;;;;;;4927623;29;20198;-76
2022/05/31 03:14:06;;;;;;;7.65;5.78;;;11.30;99.90;;;;;;4937349;29;20186;-76
2022/05/31 03:16:35;;;;;;;5.95;5.38;;;11.40;99.90;;;;;;4942314;29;20210;-77
2022/05/31 03:19:05;;;;;;;8.07;5.10;;;11.30;99.90;;;;;;4926483;29;20227;-76
2022/05/31 03:21:38;;;;;;;8.00;6.20;;;11.30;99.90;;;;;;4929267;29;20704;-79
2022/05/31 03:24:12;;;;;;;7.50;6.00;;;11.30;99.90;;;;;;4939359;29;20569;-76
2022/05/31 03:26:42;;;;;;;6.43;5.73;;;11.10;99.90;;;;;;4936500;29;20199;-76
2022/05/31 03:29:10;;;;;;;7.87;6.07;;;11.30;99.90;;;;;;4931637;29;20679;-76
2022/05/31 03:31:38;;;;;;;9.63;6.75;;;11.20;99.90;;;;;;4937742;29;20203;-78
2022/05/31 03:34:05;;;;;;;8.00;6.30;;;11.20;99.90;;;;;;4927867;29;20207;-78
2022/05/31 03:36:55;;;;;;;6.57;5.68;;;11.20;99.90;;;;;;4944220;29;20544;-78
2022/05/31 03:39:22;;;;;;;7.07;6.03;;;11.30;99.90;;;;;;4940700;29;20280;-78
2022/05/31 03:41:52;;;;;;;6.30;5.70;;;11.30;99.90;;;;;;4918315;29;20218;-80
2022/05/31 03:44:20;;;;;;;7.45;6.65;;;11.30;99.90;;;;;;4939079;29;20213;-78
2022/05/31 03:47:06;;;;;;;8.33;6.60;;;11.30;99.90;;;;;;4941957;28;20194;-78
2022/05/31 03:49:55;;;;;;;6.63;6.00;;;11.20;99.90;;;;;;4917929;29;20198;-78
2022/05/31 03:52:22;;;;;;;8.30;6.23;;;11.00;99.90;;;;;;4944059;29;20209;-78
2022/05/31 03:54:50;;;;;;;7.40;6.60;;;10.90;99.90;;;;;;4922268;29;20199;-78
2022/05/31 03:57:38;;;;;;;7.18;6.45;;;11.00;99.90;;;;;;4934740;28;20595;-78
2022/05/31 04:00:32;;;;;;;8.43;6.40;;;11.20;99.90;;;;;;4928585;29;20225;-78
2022/05/31 04:03:20;;;;;;;7.10;6.40;;;11.10;99.90;;;;;;4936222;29;20209;-79
2022/05/31 04:05:52;;;;;;;8.32;6.38;;;11.10;99.90;;;;;;4925957;29;20194;-78
2022/05/31 04:08:22;;;;;;;8.85;6.38;;;11.20;99.90;;;;;;4927282;28;20720;-78
2022/05/31 04:10:50;;;;;;;9.27;6.63;;;11.20;99.90;;;;;;4927309;29;20201;-78
2022/05/31 04:13:19;;;;;;;6.88;6.28;;;11.30;99.90;;;;;;4933921;29;20205;-78
2022/05/31 04:16:08;;;;;;;8.33;6.27;;;11.40;99.90;;;;;;4945201;28;20201;-77
2022/05/31 04:18:39;;;;;;;8.23;6.55;;;11.40;99.90;;;;;;4945105;28;20222;-78
2022/05/31 04:21:09;;;;;;;7.57;6.82;;;11.40;99.90;;;;;;4928114;29;20572;-78
2022/05/31 04:26:43;;;;;;;7.05;6.07;;;11.30;99.90;;;;;;4933552;29;20197;-78
2022/05/31 04:29:27;;;;;;;9.30;6.57;;;11.30;99.90;;;;;;4935459;28;20221;-78
2022/05/31 04:32:13;;;;;;;7.97;6.57;;;11.20;99.90;;;;;;4935602;29;20719;-79
2022/05/31 04:34:47;;;;;;;7.17;6.47;;;11.20;99.90;;;;;;4943503;29;20205;-78
2022/05/31 04:37:15;;;;;;;7.63;6.90;;;11.20;99.90;;;;;;4940060;28;20217;-78
2022/05/31 04:40:06;;;;;;;7.03;6.38;;;11.30;99.90;;;;;;4943071;28;20202;-78
2022/05/31 04:42:39;;;;;;;7.00;6.30;;;11.30;99.90;;;;;;4932857;29;20217;-78
2022/05/31 04:45:10;;;;;;;6.53;5.90;;;11.40;99.90;;;;;;4923846;29;20205;-78
2022/05/31 04:47:39;;;;;;;8.00;6.80;;;11.40;99.90;;;;;;4912389;29;20233;-78
2022/05/31 04:50:09;;;;;;;7.85;7.05;;;11.40;99.90;;;;;;4937256;29;20201;-78
2022/05/31 04:52:38;;;;;;;8.83;7.37;;;11.30;99.90;;;;;;4941763;29;20201;-78
2022/05/31 04:55:07;;;;;;;9.13;8.23;;;11.30;99.90;;;;;;4922620;29;20190;-78
2022/05/31 04:57:42;;;;;;;10.85;8.88;;;11.20;99.90;;;;;;4916700;29;20226;-78
2022/05/31 05:00:13;;;;;;;9.77;8.02;;;11.20;99.90;;;;;;4931066;29;20214;-78
2022/05/31 05:02:54;;;;;;;9.63;8.37;;;11.30;99.90;;;;;;4905757;29;20218;-79
2022/05/31 05:05:22;;;;;;;9.27;8.37;;;11.30;99.90;;;;;;4939337;29;20206;-78
2022/05/31 05:07:50;;;;;;;8.93;7.10;;;11.40;99.90;;;;;;4931045;29;20233;-83
2022/05/31 05:10:21;;;;;;;7.87;7.07;;;11.40;99.90;;;;;;4941213;29;20197;-78
2022/05/31 05:12:59;;;;;;;9.35;7.85;;;11.50;99.90;;;;;;4916081;29;20560;-78
2022/05/31 05:15:55;;;;;;;8.07;6.93;;;11.30;99.90;;;;;;4929470;29;20206;-78
2022/05/31 05:18:25;;;;;;;8.33;7.53;;;11.30;99.90;;;;;;4943041;28;20228;-78
2022/05/31 05:20:53;;;;;;;9.25;7.22;;;11.40;99.90;;;;;;4939019;29;20210;-78
2022/05/31 05:23:43;;;;;;;9.30;7.57;;;11.40;99.90;;;;;;4936281;29;20213;-78
2022/05/31 05:26:14;;;;;;;8.10;7.30;;;11.30;99.90;;;;;;4932132;28;20206;-79
2022/05/31 05:31:53;;;;;;;7.90;7.20;;;11.40;99.90;;;;;;4932896;29;20199;-79
2022/05/31 05:34:55;;;;;;;8.53;7.67;;;11.50;99.90;;;;;;4888566;29;20210;-78
2022/05/31 05:37:24;;;;;;;7.43;6.53;;;11.50;99.90;;;;;;4912976;29;20222;-78
2022/05/31 05:39:51;;;;;;;8.80;7.27;;;11.50;99.90;;;;;;4943823;29;20199;-78
2022/05/31 05:42:41;;;;;;;8.65;6.88;;;11.50;99.90;;;;;;4934833;29;20226;-78
2022/05/31 05:45:14;;;;;;;9.82;6.78;;;11.50;99.90;;;;;;4918288;29;20209;-78
2022/05/31 05:47:45;;;;;;;8.20;5.82;;;11.60;99.90;;;;;;4933241;29;20237;-78
2022/05/31 05:50:26;;;;;;;8.30;7.50;;;11.70;99.90;;;;;;4918362;29;20198;-79
2022/05/31 05:53:14;;;;;;;8.30;7.50;;;11.70;99.90;;;;;;4928100;29;20229;-79
2022/05/31 05:56:17;;;;;;;8.15;7.35;;;11.60;99.90;;;;;;4873016;29;20311;-78
2022/05/31 05:59:03;;;;;;;9.25;6.97;;;11.70;99.90;;;;;;4932292;29;20257;-79
2022/05/31 06:01:55;;;;;;;8.43;7.07;;;11.80;99.90;;;;;;4935389;29;20209;-80
2022/05/31 06:04:51;;;;;;;9.70;6.85;;;11.70;99.90;;;;;;4933160;29;20194;-78
2022/05/31 06:07:25;;;;;;;8.43;6.45;;;11.60;99.90;;;;;;4917926;29;20242;-78
2022/05/31 06:09:57;;;;;;;9.80;6.68;;;11.40;99.90;;;;;;4942300;29;20571;-80
2022/05/31 06:12:30;;;;;;;10.60;7.07;;;11.50;99.90;;;;;;4908404;29;20205;-78
2022/05/31 06:15:02;;;;;;;9.17;6.70;;;11.50;99.90;;;;;;4916532;29;20685;-78
2022/05/31 06:17:37;;;;;;;7.78;6.50;;;11.30;99.90;;;;;;4908439;29;20575;-78
2022/05/31 06:20:08;;;;;;;8.10;6.68;;;11.60;99.90;;;;;;4929455;29;20209;-78
2022/05/31 06:22:37;;;;;;;11.13;7.15;;;11.70;99.90;;;;;;4919264;29;20579;-79
2022/05/31 06:25:14;;;;;;;8.27;6.78;;;12.00;99.90;;;;;;4933088;29;20216;-79
2022/05/31 06:28:14;;;;;;;8.38;7.00;;;12.00;99.90;;;;;;4918753;29;20631;-80
2022/05/31 06:30:41;;;;;;;9.98;7.95;;;12.00;99.90;;;;;;4922437;29;20206;-79
2022/05/31 06:33:10;;;;;;;7.88;7.15;;;11.80;99.90;;;;;;4934837;29;20560;-78
2022/05/31 06:35:38;;;;;;;10.40;7.88;;;11.90;99.90;;;;;;4934312;29;20665;-78
2022/05/31 06:38:17;;;;;;;9.02;6.95;;;12.00;99.90;;;;;;4924427;29;20229;-78
2022/05/31 06:40:45;;;;;;;8.52;7.20;;;11.90;99.90;;;;;;4950307;29;20201;-79
2022/05/31 06:43:34;;;;;;;9.35;7.35;;;11.90;99.90;;;;;;4926007;29;20692;-79
2022/05/31 06:46:20;;;;;;;8.38;7.07;;;11.90;99.90;;;;;;4934132;29;20201;-79
2022/05/31 06:49:17;;;;;;;7.97;7.18;;;12.20;99.90;;;;;;4869935;29;20251;-79
2022/05/31 06:58:00;;;;;;;6.97;6.38;;;12.30;99.90;;;;;;4938365;29;20560;-79
2022/05/31 07:00:35;;;;;;;7.32;6.53;;;12.40;99.90;;;;;;4921605;29;20202;-78
2022/05/31 07:03:04;;;;;;;10.15;6.43;;;12.30;99.90;;;;;;4921088;29;20221;-78
2022/05/31 07:05:45;;;;;;;8.60;6.03;;;12.40;99.90;;;;;;4921136;29;20202;-78
2022/05/31 07:08:19;;;;;;;7.47;6.35;;;12.40;99.90;;;;;;4920185;29;20233;-79
2022/05/31 07:10:58;;;;;;;9.35;6.05;;;12.40;99.90;;;;;;4943468;28;20570;-78
2022/05/31 07:13:44;;;;;;;9.07;6.57;;;12.50;99.90;;;;;;4950267;28;20676;-80
2022/05/31 07:16:30;;;;;;;8.95;6.80;;;12.50;99.90;;;;;;4939403;28;20197;-79
2022/05/31 07:19:07;;;;;;;7.18;6.32;;;12.60;99.90;;;;;;4933129;29;20225;-78
2022/05/31 07:21:41;;;;;;;6.38;5.78;;;12.50;99.90;;;;;;4921348;29;20202;-78
2022/05/31 07:24:10;;;;;;;8.63;5.90;;;12.50;99.90;;;;;;4921662;29;20656;-79
2022/05/31 07:26:48;;;;;;;6.60;5.47;;;12.60;99.90;;;;;;4920815;29;20210;-79
2022/05/31 07:29:18;;;;;;;6.47;5.95;;;12.60;99.90;;;;;;4921269;29;20700;-79
2022/05/31 07:31:46;;;;;;;7.43;5.93;;;12.70;99.90;;;;;;4921376;29;20203;-79
2022/05/31 07:34:14;;;;;;;6.88;6.13;;;12.70;99.90;;;;;;4920167;29;20206;-79
2022/05/31 07:36:51;;;;;;;9.05;6.97;;;12.60;99.90;;;;;;4914496;29;20225;-79
2022/05/31 07:39:26;;;;;;;6.78;6.10;;;12.60;99.90;;;;;;4936609;29;20249;-79
2022/05/31 07:41:56;;;;;;;8.50;6.97;;;12.60;99.90;;;;;;4949636;29;20209;-79
2022/05/31 07:44:26;;;;;;;8.75;6.57;;;12.40;99.90;;;;;;4936439;29;20209;-79
2022/05/31 07:46:54;;;;;;;9.80;7.32;;;12.40;99.90;;;;;;4930796;29;20198;-79
2022/05/31 07:49:23;;;;;;;8.05;7.13;;;12.40;99.90;;;;;;4956100;28;20221;-79
2022/05/31 07:52:00;;;;;;;12.18;7.15;;;12.40;99.90;;;;;;4956230;29;20201;-79
2022/05/31 07:55:08;;;;;;;10.98;6.50;;;12.30;99.90;;;;;;4956681;29;20216;-79
2022/05/31 08:00:48;;;;;;;8.18;7.30;;;12.10;99.90;;;;;;4919061;29;20186;-79
2022/05/31 08:03:15;;;;;;;10.43;7.45;;;12.10;99.90;;;;;;4924811;29;20234;-79
2022/05/31 08:05:43;;;;;;;13.95;7.47;;;12.10;99.90;;;;;;4928162;29;20202;-80
2022/05/31 08:08:11;;;;;;;10.73;7.28;;;12.00;99.90;;;;;;4933946;29;20233;-80
2022/05/31 08:10:41;;;;;;;9.15;7.00;;;12.00;99.90;;;;;;4945387;28;20210;-81
2022/05/31 08:13:08;;;;;;;11.32;7.63;;;12.10;99.90;;;;;;4917401;29;20203;-79
2022/05/31 08:15:44;;;;;;;10.13;8.90;;;12.30;99.90;;;;;;4921146;29;20206;-79
2022/05/31 08:18:11;;;;;;;10.65;8.43;;;12.30;99.90;;;;;;4940004;29;20229;-79
2022/05/31 08:20:39;;;;;;;9.80;8.57;;;12.40;99.90;;;;;;4948430;29;20212;-79
2022/05/31 08:23:07;;;;;;;10.80;8.85;;;12.40;99.90;;;;;;4921357;29;20225;-79
2022/05/31 08:25:36;;;;;;;11.52;8.20;;;12.50;99.90;;;;;;4937968;29;20664;-80
2022/05/31 08:28:05;;;;;;;12.90;9.70;;;12.50;99.90;;;;;;4926783;29;20242;-81
2022/05/31 08:31:28;;;;;;;11.25;8.70;;;12.60;99.90;;;;;;4920335;29;20209;-79
2022/05/31 08:33:55;;;;;;;10.98;9.10;;;12.60;99.90;;;;;;4936219;29;20201;-80
2022/05/31 08:36:23;;;;;;;10.18;9.18;;;12.70;99.90;;;;;;4920051;29;20213;-79
2022/05/31 08:38:50;;;;;;;15.23;9.82;;;12.70;99.90;;;;;;4936269;29;20221;-79
2022/05/31 08:41:27;;;;;;;10.77;8.90;;;12.80;99.90;;;;;;4916871;29;20585;-79
2022/05/31 08:44:05;;;;;;;12.57;9.38;;;12.90;99.90;;;;;;4930745;29;20225;-78
2022/05/31 08:46:57;;;;;;;10.55;9.50;;;13.00;99.90;;;;;;4934034;29;20209;-85
2022/05/31 08:53:01;;;;;;;11.45;9.25;;;13.00;99.90;;;;;;4932496;29;20194;-79
2022/05/31 08:58:35;;;;;;;11.77;9.50;;;13.40;99.90;;;;;;4923841;29;20222;-78
2022/05/31 09:01:05;;;;;;;10.82;9.73;;;13.50;99.90;;;;;;4927213;29;20209;-79
2022/05/31 09:03:43;;;;;;;9.93;8.93;;;13.30;99.90;;;;;;4922517;29;20213;-78
2022/05/31 09:06:31;;;;;;;9.75;8.68;;;13.40;99.90;;;;;;4937987;29;20672;-79
2022/05/31 09:09:38;;;;;;;14.57;9.73;;;13.20;99.90;;;;;;4935424;29;20233;-79
2022/05/31 09:12:15;;;;;;;10.23;9.13;;;13.30;99.90;;;;;;4912664;29;20210;-78
2022/05/31 09:14:51;;;;;;;10.20;8.90;;;13.40;99.90;;;;;;4917273;29;20202;-80
2022/05/31 09:17:27;;;;;;;12.10;9.43;;;13.30;99.90;;;;;;4928072;29;20226;-78
2022/05/31 09:20:02;;;;;;;10.02;9.02;;;13.20;99.90;;;;;;4912659;29;20206;-78
2022/05/31 09:22:30;;;;;;;10.90;9.13;;;13.30;99.90;;;;;;4939872;28;20201;-78
2022/05/31 09:24:57;;;;;;;12.00;8.93;;;13.60;99.90;;;;;;4912004;29;20233;-80
2022/05/31 09:27:36;;;;;;;12.05;9.20;;;13.90;99.90;;;;;;4945952;28;20233;-80
2022/05/31 09:30:09;;;;;;;9.95;9.05;;;14.00;99.90;;;;;;4933369;29;20245;-80
2022/05/31 09:32:58;;;;;;;12.05;8.73;;;13.80;99.90;;;;;;4932819;29;20203;-79
2022/05/31 09:35:47;;;;;;;9.60;8.13;;;13.90;99.90;;;;;;4935532;29;20198;-78
2022/05/31 09:39:04;;;;;;;11.05;8.77;;;14.00;99.90;;;;;;4939934;28;20696;-80
2022/05/31 09:41:35;;;;;;;10.15;8.35;;;14.00;99.90;;;;;;4920071;29;20213;-78
2022/05/31 09:44:10;;;;;;;9.68;8.50;;;14.00;99.90;;;;;;4918505;29;20581;-79
2022/05/31 09:46:42;;;;;;;10.13;8.77;;;14.20;99.90;;;;;;4929217;29;20205;-80
2022/05/31 09:49:27;;;;;;;10.30;7.53;;;14.20;99.90;;;;;;4926550;29;20595;-77
2022/05/31 09:52:23;;;;;;;9.05;7.55;;;14.10;99.90;;;;;;4922058;29;20218;-79
2022/05/31 09:58:32;;;;;;;8.77;7.72;;;14.40;99.90;;;;;;4923120;29;20221;-79
2022/05/31 10:01:26;;;;;;;9.93;7.18;;;14.50;99.90;;;;;;4941306;29;20693;-79
2022/05/31 10:04:28;;;;;;;7.28;6.65;;;14.60;99.90;;;;;;4925837;29;20221;-78
2022/05/31 10:06:59;;;;;;;7.53;6.82;;;14.70;99.90;;;;;;4921971;29;20206;-79
2022/05/31 10:09:31;;;;;;;8.02;7.05;;;14.80;99.90;;;;;;4931118;29;20207;-79
2022/05/31 10:12:14;;;;;;;6.15;5.60;;;14.70;99.90;;;;;;4914824;29;20580;-79
2022/05/31 10:14:44;;;;;;;9.30;6.53;;;14.50;99.90;;;;;;4937529;29;20206;-79
2022/05/31 10:17:29;;;;;;;7.78;5.97;;;14.40;99.90;;;;;;4942244;29;20206;-78
2022/05/31 10:20:28;;;;;;;7.18;6.43;;;14.60;99.90;;;;;;4922162;29;20210;-78
2022/05/31 10:22:59;;;;;;;6.70;5.82;;;14.60;99.90;;;;;;4940666;29;20243;-78
2022/05/31 10:25:47;;;;;;;7.45;6.35;;;14.80;99.90;;;;;;4929907;29;20193;-79
2022/05/31 10:28:37;;;;;;;6.80;6.10;;;14.90;99.90;;;;;;4930736;29;20241;-79
2022/05/31 10:31:18;;;;;;;8.35;6.13;;;15.00;99.90;;;;;;4918461;29;20202;-81
2022/05/31 10:33:55;;;;;;;6.47;5.82;;;15.10;99.90;;;;;;4923862;29;20204;-80
2022/05/31 10:36:26;;;;;;;8.52;7.13;;;15.00;99.90;;;;;;4930049;29;20210;-83
2022/05/31 10:38:54;;;;;;;9.15;6.00;;;15.20;99.90;;;;;;4929053;29;20222;-77
2022/05/31 10:41:25;;;;;;;8.25;5.88;;;15.60;99.90;;;;;;4922918;29;20201;-79
2022/05/31 10:44:00;;;;;;;7.57;6.18;;;15.60;99.90;;;;;;4937356;29;20214;-79
2022/05/31 10:46:30;;;;;;;10.20;6.28;;;15.40;99.90;;;;;;4934050;29;20555;-79
2022/05/31 10:49:01;;;;;;;8.02;6.15;;;15.20;99.90;;;;;;4930842;29;20226;-78
2022/05/31 10:52:00;;;;;;;7.05;5.85;;;15.40;99.90;;;;;;4935945;29;20199;-78
2022/05/31 10:54:42;;;;;;;7.95;6.25;;;15.60;99.90;;;;;;4915295;29;20779;-78
2022/05/31 10:57:19;;;;;;;7.68;5.75;;;15.90;99.90;;;;;;4925154;29;20209;-78
2022/05/31 10:59:53;;;;;;;7.90;6.13;;;15.70;99.90;;;;;;4920106;29;20208;-78
2022/05/31 11:02:50;;;;;;;8.15;6.05;;;15.80;99.90;;;;;;4918493;29;20206;-78
2022/05/31 11:05:21;;;;;;;19.60;6.38;;;16.00;99.90;;;;;;4930859;29;20214;-77
2022/05/31 11:13:45;;;;;;;8.07;5.72;;;17.20;99.40;;;;;;4942053;28;20552;-77
2022/05/31 11:16:20;;;;;;;9.50;6.32;;;17.50;98.80;;;;;;4932867;29;20702;-77
2022/05/31 11:19:30;;;;;;;6.35;5.20;;;17.40;98.70;;;;;;4931143;29;20236;-78
2022/05/31 11:22:15;;;;;;;6.53;5.10;;;17.20;99.20;;;;;;4930045;29;20322;-76
2022/05/31 11:24:57;;;;;;;9.20;4.35;;;17.00;97.80;;;;;;4915901;29;20229;-78
2022/05/31 11:27:36;;;;;;;6.95;3.95;;;17.40;97.00;;;;;;4929403;29;20223;-77
2022/05/31 11:30:19;;;;;;;6.53;3.88;;;17.30;97.40;;;;;;4913583;29;20294;-78
2022/05/31 11:33:04;;;;;;;4.03;3.30;;;17.20;95.50;;;;;;4901820;29;20624;-76
2022/05/31 11:35:44;;;;;;;5.25;4.25;;;17.30;96.10;;;;;;4916301;29;20673;-78
2022/05/31 11:38:16;;;;;;;4.32;3.55;;;17.20;94.80;;;;;;4918231;29;20222;-78
2022/05/31 11:40:53;;;;;;;4.63;3.40;;;16.90;96.50;;;;;;4934360;29;20206;-77
2022/05/31 11:43:51;;;;;;;4.35;3.85;;;17.10;96.40;;;;;;4935516;29;20212;-78
2022/05/31 11:46:27;;;;;;;5.22;3.40;;;17.30;96.20;;;;;;4924046;29;20207;-77
2022/05/31 11:48:59;;;;;;;3.97;3.42;;;17.10;95.60;;;;;;4945791;29;20897;-77
2022/05/31 11:51:44;;;;;;;4.32;3.53;;;17.60;97.90;;;;;;4948741;29;20206;-77
2022/05/31 11:55:25;;;;;;;4.93;3.72;;;17.30;93.90;;;;;;4941000;29;20202;-77
2022/05/31 11:57:56;;;;;;;3.97;3.58;;;17.40;95.30;;;;;;4936271;28;20244;-78
2022/05/31 12:00:36;;;;;;;5.60;3.85;;;17.90;93.30;;;;;;4932315;29;20210;-77
2022/05/31 12:03:10;;;;;;;4.32;3.70;;;17.80;93.50;;;;;;4927975;29;20202;-77
2022/05/31 12:05:43;;;;;;;6.63;4.25;;;17.70;92.40;;;;;;4934465;29;20225;-77
2022/05/31 12:08:15;;;;;;;4.38;3.85;;;17.70;93.20;;;;;;4920041;29;20226;-77
2022/05/31 12:10:46;;;;;;;4.95;3.75;;;17.50;93.40;;;;;;4920753;29;20205;-78
2022/05/31 12:13:21;;;;;;;4.45;3.65;;;17.70;92.60;;;;;;4919746;29;20198;-78
2022/05/31 12:15:55;;;;;;;4.50;3.85;;;17.90;92.00;;;;;;4923330;29;20206;-78
2022/05/31 12:18:29;;;;;;;4.22;3.85;;;17.90;91.50;;;;;;4934670;29;20230;-77
2022/05/31 12:21:03;;;;;;;4.20;3.58;;;18.20;93.70;;;;;;4919874;29;20404;-77
2022/05/31 12:23:35;;;;;;;8.77;4.32;;;18.30;93.70;;;;;;4938486;29;20202;-78
2022/05/31 12:26:19;;;;;;;4.78;3.97;;;18.70;92.30;;;;;;4922708;29;20206;-77
2022/05/31 12:28:51;;;;;;;4.75;4.30;;;18.90;91.90;;;;;;4917668;29;20230;-76
2022/05/31 12:31:22;;;;;;;4.85;4.35;;;18.60;90.70;;;;;;4917905;29;20198;-78
2022/05/31 12:33:50;;;;;;;4.65;3.65;;;18.50;88.40;;;;;;4941506;29;20210;-78
2022/05/31 12:36:19;;;;;;;4.05;3.60;;;19.10;88.70;;;;;;4917733;29;20208;-78
2022/05/31 12:39:04;;;;;;;4.97;3.42;;;19.40;91.00;;;;;;4927412;29;20550;-78
2022/05/31 12:41:37;;;;;;;4.07;3.55;;;19.60;90.30;;;;;;4934555;29;20202;-78
2022/05/31 12:44:16;;;;;;;4.72;3.22;;;19.40;90.90;;;;;;4918624;29;20695;-77
2022/05/31 12:46:46;;;;;;;5.25;3.45;;;18.90;86.10;;;;;;4917395;29;20203;-77
2022/05/31 12:49:24;;;;;;;5.65;3.97;;;18.90;83.60;;;;;;4917154;29;20229;-77
2022/05/31 12:52:52;;;;;;;5.40;3.50;;;19.20;86.40;;;;;;4916109;29;20207;-77
2022/05/31 12:55:49;;;;;;;4.28;3.10;;;19.60;84.20;;;;;;4900803;29;20545;-78
2022/05/31 12:58:41;;;;;;;6.45;3.53;;;19.70;83.70;;;;;;4917965;29;20207;-77
2022/05/31 13:01:43;;;;;;;4.55;3.30;;;19.60;77.20;;;;;;4917267;29;20206;-77
2022/05/31 13:04:21;;;;;;;3.75;3.45;;;19.40;72.30;;;;;;4895426;29;20218;-77
2022/05/31 13:07:09;;;;;;;7.07;2.95;;;19.60;69.00;;;;;;4900690;29;20223;-77
2022/05/31 13:09:40;;;;;;;5.40;3.00;;;19.40;68.10;;;;;;4902496;29;20207;-78
2022/05/31 13:20:39;;;;;;;2.90;2.53;;;20.30;64.50;;;;;;4930480;29;20554;-77
2022/05/31 13:23:14;;;;;;;2.40;2.20;;;20.60;63.60;;;;;;4919305;29;20202;-78
2022/05/31 13:25:46;;;;;;;3.97;2.50;;;20.90;57.50;;;;;;4918248;29;20217;-78
2022/05/31 13:28:31;;;;;;;3.88;2.40;;;21.10;57.80;;;;;;4934054;29;20222;-77
2022/05/31 13:31:02;;;;;;;3.15;2.42;;;20.60;58.00;;;;;;4919876;29;20356;-78
2022/05/31 13:33:33;;;;;;;3.90;2.17;;;21.20;55.40;;;;;;4931916;29;20664;-78
2022/05/31 13:36:04;;;;;;;3.25;2.35;;;21.20;53.80;;;;;;4929756;29;20202;-78
2022/05/31 13:38:43;;;;;;;2.53;2.30;;;21.00;55.90;;;;;;4918591;29;20226;-77
2022/05/31 13:41:13;;;;;;;3.58;2.85;;;20.70;57.90;;;;;;4923535;29;20222;-77
2022/05/31 13:43:50;;;;;;;4.22;2.28;;;20.40;59.40;;;;;;4939103;29;20241;-78
2022/05/31 13:46:24;;;;;;;3.63;2.53;;;20.30;60.40;;;;;;4942921;29;20217;-78
2022/05/31 13:48:57;;;;;;;3.80;2.50;;;19.90;58.30;;;;;;4941887;28;20214;-77
2022/05/31 13:51:29;;;;;;;2.70;2.25;;;20.10;56.10;;;;;;4930862;29;20194;-78
2022/05/31 13:54:07;;;;;;;3.83;2.33;;;19.80;54.50;;;;;;4917316;29;20557;-78
2022/05/31 13:56:35;;;;;;;2.72;2.47;;;19.80;55.20;;;;;;4949839;29;20205;-78
2022/05/31 13:59:13;;;;;;;2.75;2.25;;;19.40;54.90;;;;;;4927955;29;20233;-77
2022/05/31 14:01:47;;;;;;;3.42;2.50;;;19.10;56.00;;;;;;4933646;29;20186;-78
2022/05/31 14:04:34;;;;;;;3.88;2.85;;;19.00;57.30;;;;;;4924473;29;20212;-77
2022/05/31 14:07:31;;;;;;;2.80;2.58;;;19.10;58.80;;;;;;4939245;29;20222;-77
2022/05/31 14:10:00;;;;;;;3.78;2.70;;;19.00;59.50;;;;;;4934113;28;20202;-77
2022/05/31 14:12:31;;;;;;;2.80;2.60;;;18.90;55.60;;;;;;4917634;29;20198;-77
2022/05/31 14:15:00;;;;;;;3.00;2.60;;;18.70;53.50;;;;;;4933756;29;20198;-78
2022/05/31 14:17:34;;;;;;;2.58;2.38;;;18.90;54.00;;;;;;4916906;29;20238;-77
2022/05/31 14:20:05;;;;;;;3.58;2.42;;;18.80;53.90;;;;;;4933488;29;20206;-77